sensor_id;sensor_type;location;lat;lon;timestamp;P1;durP1;ratioP1;P2;durP2;ratioP2
2019;SDS011;1014;51.960;8.542;2023-04-06T00:00:26;25.73;;;24.13;;
2019;SDS011;1014;51.960;8.542;2023-04-06T00:02:53;26.58;;;24.35;;
2019;SDS011;1014;51.960;8.542;2023-04-06T00:05:20;25.30;;;23.73;;
2019;SDS011;1014;51.960;8.542;2023-04-06T00:07:49;25.17;;;23.67;;
2019;SDS011;1014;51.960;8.542;2023-04-06T00:10:17;26.83;;;24.92;;
2019;SDS011;1014;51.960;8.542;2023-04-06T00:12:44;26.38;;;24.48;;
2019;SDS011;1014;51.960;8.542;2023-04-06T00:15:11;25.45;;;23.80;;
2019;SDS011;1014;51.960;8.542;2023-04-06T00:17:38;24.52;;;23.10;;
2019;SDS011;1014;51.960;8.542;2023-04-06T00:20:06;24.98;;;23.58;;
2019;SDS011;1014;51.960;8.542;2023-04-06T00:22:33;25.30;;;23.60;;
2019;SDS011;1014;51.960;8.542;2023-04-06T00:25:02;24.55;;;23.15;;
2019;SDS011;1014;51.960;8.542;2023-04-06T00:27:29;24.83;;;23.30;;
2019;SDS011;1014;51.960;8.542;2023-04-06T00:29:56;25.13;;;23.55;;
2019;SDS011;1014;51.960;8.542;2023-04-06T00:32:23;25.00;;;23.40;;
2019;SDS011;1014;51.960;8.542;2023-04-06T00:34:50;25.02;;;23.52;;
2019;SDS011;1014;51.960;8.542;2023-04-06T00:37:17;25.98;;;23.92;;
2019;SDS011;1014;51.960;8.542;2023-04-06T00:39:45;25.73;;;24.13;;
2019;SDS011;1014;51.960;8.542;2023-04-06T00:42:13;26.13;;;24.23;;
2019;SDS011;1014;51.960;8.542;2023-04-06T00:44:40;25.40;;;23.80;;
2019;SDS011;1014;51.960;8.542;2023-04-06T00:47:07;25.08;;;23.27;;
2019;SDS011;1014;51.960;8.542;2023-04-06T00:49:35;25.55;;;23.75;;
2019;SDS011;1014;51.960;8.542;2023-04-06T00:52:02;25.95;;;24.17;;
2019;SDS011;1014;51.960;8.542;2023-04-06T00:54:29;26.00;;;24.30;;
2019;SDS011;1014;51.960;8.542;2023-04-06T00:56:56;26.00;;;24.40;;
2019;SDS011;1014;51.960;8.542;2023-04-06T00:59:27;25.17;;;23.52;;
2019;SDS011;1014;51.960;8.542;2023-04-06T01:01:54;24.63;;;23.08;;
2019;SDS011;1014;51.960;8.542;2023-04-06T01:04:21;25.60;;;23.83;;
2019;SDS011;1014;51.960;8.542;2023-04-06T01:06:48;25.70;;;24.00;;
2019;SDS011;1014;51.960;8.542;2023-04-06T01:09:16;24.58;;;22.98;;
2019;SDS011;1014;51.960;8.542;2023-04-06T01:11:43;25.20;;;23.55;;
2019;SDS011;1014;51.960;8.542;2023-04-06T01:14:10;25.10;;;23.40;;
2019;SDS011;1014;51.960;8.542;2023-04-06T01:16:39;24.23;;;22.70;;
2019;SDS011;1014;51.960;8.542;2023-04-06T01:19:09;25.55;;;23.80;;
2019;SDS011;1014;51.960;8.542;2023-04-06T01:21:36;25.90;;;24.33;;
2019;SDS011;1014;51.960;8.542;2023-04-06T01:24:05;25.88;;;24.33;;
2019;SDS011;1014;51.960;8.542;2023-04-06T01:26:33;25.02;;;23.52;;
2019;SDS011;1014;51.960;8.542;2023-04-06T01:29:00;26.13;;;24.63;;
2019;SDS011;1014;51.960;8.542;2023-04-06T01:31:28;24.85;;;23.35;;
2019;SDS011;1014;51.960;8.542;2023-04-06T01:33:58;25.08;;;23.58;;
2019;SDS011;1014;51.960;8.542;2023-04-06T01:36:25;25.15;;;23.65;;
2019;SDS011;1014;51.960;8.542;2023-04-06T01:38:53;25.83;;;24.13;;
2019;SDS011;1014;51.960;8.542;2023-04-06T01:41:22;25.13;;;23.60;;
2019;SDS011;1014;51.960;8.542;2023-04-06T01:43:49;25.40;;;23.65;;
2019;SDS011;1014;51.960;8.542;2023-04-06T01:46:19;26.40;;;24.70;;
2019;SDS011;1014;51.960;8.542;2023-04-06T01:48:46;25.60;;;23.88;;
2019;SDS011;1014;51.960;8.542;2023-04-06T01:51:13;25.95;;;24.15;;
2019;SDS011;1014;51.960;8.542;2023-04-06T01:53:41;25.92;;;24.23;;
2019;SDS011;1014;51.960;8.542;2023-04-06T01:56:08;25.58;;;24.02;;
2019;SDS011;1014;51.960;8.542;2023-04-06T01:58:37;26.27;;;24.35;;
2019;SDS011;1014;51.960;8.542;2023-04-06T02:01:04;25.85;;;24.25;;
2019;SDS011;1014;51.960;8.542;2023-04-06T02:03:31;26.25;;;24.55;;
2019;SDS011;1014;51.960;8.542;2023-04-06T02:05:58;28.13;;;26.35;;
2019;SDS011;1014;51.960;8.542;2023-04-06T02:08:25;27.38;;;25.27;;
2019;SDS011;1014;51.960;8.542;2023-04-06T02:10:53;26.00;;;24.40;;
2019;SDS011;1014;51.960;8.542;2023-04-06T02:13:21;25.70;;;24.10;;
2019;SDS011;1014;51.960;8.542;2023-04-06T02:15:50;25.60;;;24.00;;
2019;SDS011;1014;51.960;8.542;2023-04-06T02:18:17;26.10;;;24.55;;
2019;SDS011;1014;51.960;8.542;2023-04-06T02:20:45;26.92;;;25.33;;
2019;SDS011;1014;51.960;8.542;2023-04-06T02:23:12;28.10;;;26.23;;
2019;SDS011;1014;51.960;8.542;2023-04-06T02:25:39;26.88;;;25.25;;
2019;SDS011;1014;51.960;8.542;2023-04-06T02:28:06;25.58;;;23.92;;
2019;SDS011;1014;51.960;8.542;2023-04-06T02:30:33;26.27;;;24.48;;
2019;SDS011;1014;51.960;8.542;2023-04-06T02:33:02;26.50;;;24.77;;
2019;SDS011;1014;51.960;8.542;2023-04-06T02:35:30;26.45;;;24.55;;
2019;SDS011;1014;51.960;8.542;2023-04-06T02:37:57;28.88;;;26.60;;
2019;SDS011;1014;51.960;8.542;2023-04-06T02:40:24;27.50;;;25.30;;
2019;SDS011;1014;51.960;8.542;2023-04-06T02:42:51;25.77;;;24.08;;
2019;SDS011;1014;51.960;8.542;2023-04-06T02:45:18;26.90;;;25.02;;
2019;SDS011;1014;51.960;8.542;2023-04-06T02:47:45;28.27;;;26.23;;
2019;SDS011;1014;51.960;8.542;2023-04-06T02:50:14;26.20;;;24.35;;
2019;SDS011;1014;51.960;8.542;2023-04-06T02:52:41;26.05;;;24.40;;
2019;SDS011;1014;51.960;8.542;2023-04-06T02:55:08;26.88;;;25.08;;
2019;SDS011;1014;51.960;8.542;2023-04-06T02:57:35;26.42;;;24.50;;
2019;SDS011;1014;51.960;8.542;2023-04-06T03:00:02;27.45;;;25.65;;
2019;SDS011;1014;51.960;8.542;2023-04-06T03:02:30;26.40;;;24.70;;
2019;SDS011;1014;51.960;8.542;2023-04-06T03:04:57;26.45;;;24.67;;
2019;SDS011;1014;51.960;8.542;2023-04-06T03:07:25;26.73;;;24.98;;
2019;SDS011;1014;51.960;8.542;2023-04-06T03:09:52;26.48;;;24.58;;
2019;SDS011;1014;51.960;8.542;2023-04-06T03:12:19;26.55;;;24.75;;
2019;SDS011;1014;51.960;8.542;2023-04-06T03:14:46;27.73;;;25.00;;
2019;SDS011;1014;51.960;8.542;2023-04-06T03:17:13;27.88;;;25.77;;
2019;SDS011;1014;51.960;8.542;2023-04-06T03:19:40;26.60;;;24.58;;
2019;SDS011;1014;51.960;8.542;2023-04-06T03:22:07;26.35;;;24.65;;
2019;SDS011;1014;51.960;8.542;2023-04-06T03:24:36;27.63;;;25.65;;
2019;SDS011;1014;51.960;8.542;2023-04-06T03:27:03;26.33;;;24.52;;
2019;SDS011;1014;51.960;8.542;2023-04-06T03:29:31;26.55;;;24.85;;
2019;SDS011;1014;51.960;8.542;2023-04-06T03:31:58;26.05;;;24.23;;
2019;SDS011;1014;51.960;8.542;2023-04-06T03:34:25;26.92;;;25.08;;
2019;SDS011;1014;51.960;8.542;2023-04-06T03:36:52;27.30;;;25.42;;
2019;SDS011;1014;51.960;8.542;2023-04-06T03:39:19;26.65;;;24.95;;
2019;SDS011;1014;51.960;8.542;2023-04-06T03:41:47;27.15;;;25.45;;
2019;SDS011;1014;51.960;8.542;2023-04-06T03:44:14;27.15;;;25.40;;
2019;SDS011;1014;51.960;8.542;2023-04-06T03:46:43;28.40;;;26.50;;
2019;SDS011;1014;51.960;8.542;2023-04-06T03:49:10;27.85;;;25.85;;
2019;SDS011;1014;51.960;8.542;2023-04-06T03:51:38;26.10;;;24.50;;
2019;SDS011;1014;51.960;8.542;2023-04-06T03:54:05;26.45;;;24.58;;
2019;SDS011;1014;51.960;8.542;2023-04-06T03:56:32;25.33;;;23.42;;
2019;SDS011;1014;51.960;8.542;2023-04-06T03:59:00;27.23;;;25.42;;
2019;SDS011;1014;51.960;8.542;2023-04-06T04:01:27;26.70;;;24.90;;
2019;SDS011;1014;51.960;8.542;2023-04-06T04:03:54;26.73;;;24.92;;
2019;SDS011;1014;51.960;8.542;2023-04-06T04:06:21;27.80;;;25.45;;
2019;SDS011;1014;51.960;8.542;2023-04-06T04:08:48;27.00;;;25.13;;
2019;SDS011;1014;51.960;8.542;2023-04-06T04:11:15;25.98;;;24.38;;
2019;SDS011;1014;51.960;8.542;2023-04-06T04:13:42;26.63;;;24.83;;
2019;SDS011;1014;51.960;8.542;2023-04-06T04:16:11;29.25;;;26.65;;
2019;SDS011;1014;51.960;8.542;2023-04-06T04:18:38;27.52;;;25.65;;
2019;SDS011;1014;51.960;8.542;2023-04-06T04:21:05;27.10;;;25.40;;
2019;SDS011;1014;51.960;8.542;2023-04-06T04:23:32;28.92;;;26.52;;
2019;SDS011;1014;51.960;8.542;2023-04-06T04:25:59;26.85;;;25.10;;
2019;SDS011;1014;51.960;8.542;2023-04-06T04:28:26;27.45;;;25.45;;
2019;SDS011;1014;51.960;8.542;2023-04-06T04:30:53;28.35;;;26.45;;
2019;SDS011;1014;51.960;8.542;2023-04-06T04:33:21;26.90;;;25.00;;
2019;SDS011;1014;51.960;8.542;2023-04-06T04:35:49;28.25;;;26.15;;
2019;SDS011;1014;51.960;8.542;2023-04-06T04:38:16;26.30;;;24.50;;
2019;SDS011;1014;51.960;8.542;2023-04-06T04:40:43;25.75;;;23.95;;
2019;SDS011;1014;51.960;8.542;2023-04-06T04:43:10;28.15;;;26.13;;
2019;SDS011;1014;51.960;8.542;2023-04-06T04:45:37;26.13;;;24.52;;
2019;SDS011;1014;51.960;8.542;2023-04-06T04:48:04;28.50;;;26.50;;
2019;SDS011;1014;51.960;8.542;2023-04-06T04:50:34;27.60;;;25.70;;
2019;SDS011;1014;51.960;8.542;2023-04-06T04:53:01;26.67;;;24.98;;
2019;SDS011;1014;51.960;8.542;2023-04-06T04:55:30;27.15;;;25.42;;
2019;SDS011;1014;51.960;8.542;2023-04-06T04:57:57;27.20;;;25.30;;
2019;SDS011;1014;51.960;8.542;2023-04-06T05:00:24;27.75;;;25.50;;
2019;SDS011;1014;51.960;8.542;2023-04-06T05:02:51;27.05;;;25.25;;
2019;SDS011;1014;51.960;8.542;2023-04-06T05:05:18;27.67;;;25.83;;
2019;SDS011;1014;51.960;8.542;2023-04-06T05:07:47;28.80;;;26.70;;
2019;SDS011;1014;51.960;8.542;2023-04-06T05:10:14;27.60;;;25.70;;
2019;SDS011;1014;51.960;8.542;2023-04-06T05:12:41;26.33;;;24.33;;
2019;SDS011;1014;51.960;8.542;2023-04-06T05:15:09;27.02;;;24.90;;
2019;SDS011;1014;51.960;8.542;2023-04-06T05:17:36;26.98;;;25.20;;
2019;SDS011;1014;51.960;8.542;2023-04-06T05:20:03;26.90;;;24.90;;
2019;SDS011;1014;51.960;8.542;2023-04-06T05:22:31;25.83;;;24.02;;
2019;SDS011;1014;51.960;8.542;2023-04-06T05:24:59;25.23;;;23.45;;
2019;SDS011;1014;51.960;8.542;2023-04-06T05:27:26;26.50;;;24.52;;
2019;SDS011;1014;51.960;8.542;2023-04-06T05:29:53;26.35;;;24.45;;
2019;SDS011;1014;51.960;8.542;2023-04-06T05:32:20;27.50;;;25.50;;
2019;SDS011;1014;51.960;8.542;2023-04-06T05:34:49;26.88;;;24.88;;
2019;SDS011;1014;51.960;8.542;2023-04-06T05:37:16;26.27;;;24.50;;
2019;SDS011;1014;51.960;8.542;2023-04-06T05:39:43;26.50;;;24.75;;
2019;SDS011;1014;51.960;8.542;2023-04-06T05:42:12;25.95;;;24.35;;
2019;SDS011;1014;51.960;8.542;2023-04-06T05:44:38;27.17;;;25.02;;
2019;SDS011;1014;51.960;8.542;2023-04-06T05:47:05;26.00;;;24.20;;
2019;SDS011;1014;51.960;8.542;2023-04-06T05:49:32;24.55;;;22.85;;
2019;SDS011;1014;51.960;8.542;2023-04-06T05:51:59;26.70;;;24.90;;
2019;SDS011;1014;51.960;8.542;2023-04-06T05:54:26;26.70;;;25.00;;
2019;SDS011;1014;51.960;8.542;2023-04-06T05:56:53;26.98;;;25.27;;
2019;SDS011;1014;51.960;8.542;2023-04-06T05:59:22;27.30;;;25.30;;
2019;SDS011;1014;51.960;8.542;2023-04-06T06:01:49;26.50;;;24.65;;
2019;SDS011;1014;51.960;8.542;2023-04-06T06:04:16;25.85;;;24.00;;
2019;SDS011;1014;51.960;8.542;2023-04-06T06:06:43;26.95;;;25.15;;
2019;SDS011;1014;51.960;8.542;2023-04-06T06:09:10;27.30;;;25.33;;
2019;SDS011;1014;51.960;8.542;2023-04-06T06:11:37;26.48;;;24.05;;
2019;SDS011;1014;51.960;8.542;2023-04-06T06:14:05;27.65;;;25.65;;
2019;SDS011;1014;51.960;8.542;2023-04-06T06:16:33;25.85;;;24.02;;
2019;SDS011;1014;51.960;8.542;2023-04-06T06:19:01;26.35;;;24.65;;
2019;SDS011;1014;51.960;8.542;2023-04-06T06:21:28;25.33;;;23.67;;
2019;SDS011;1014;51.960;8.542;2023-04-06T06:23:55;26.05;;;24.25;;
2019;SDS011;1014;51.960;8.542;2023-04-06T06:26:22;26.98;;;24.95;;
2019;SDS011;1014;51.960;8.542;2023-04-06T06:28:49;26.17;;;24.27;;
2019;SDS011;1014;51.960;8.542;2023-04-06T06:31:16;26.38;;;24.63;;
2019;SDS011;1014;51.960;8.542;2023-04-06T06:33:46;27.20;;;25.30;;
2019;SDS011;1014;51.960;8.542;2023-04-06T06:36:15;25.60;;;23.80;;
2019;SDS011;1014;51.960;8.542;2023-04-06T06:38:42;26.05;;;24.30;;
2019;SDS011;1014;51.960;8.542;2023-04-06T06:41:09;27.98;;;25.88;;
2019;SDS011;1014;51.960;8.542;2023-04-06T06:43:36;26.75;;;24.90;;
2019;SDS011;1014;51.960;8.542;2023-04-06T06:46:03;26.65;;;24.85;;
2019;SDS011;1014;51.960;8.542;2023-04-06T06:48:31;27.40;;;25.50;;
2019;SDS011;1014;51.960;8.542;2023-04-06T06:50:59;26.45;;;24.48;;
2019;SDS011;1014;51.960;8.542;2023-04-06T06:53:26;27.88;;;25.42;;
2019;SDS011;1014;51.960;8.542;2023-04-06T06:55:53;27.58;;;25.77;;
2019;SDS011;1014;51.960;8.542;2023-04-06T06:58:21;29.40;;;27.05;;
2019;SDS011;1014;51.960;8.542;2023-04-06T07:00:48;27.57;;;25.77;;
2019;SDS011;1014;51.960;8.542;2023-04-06T07:03:15;27.60;;;25.60;;
2019;SDS011;1014;51.960;8.542;2023-04-06T07:05:44;27.92;;;26.02;;
2019;SDS011;1014;51.960;8.542;2023-04-06T07:08:16;27.52;;;25.55;;
2019;SDS011;1014;51.960;8.542;2023-04-06T07:10:43;29.20;;;27.10;;
2019;SDS011;1014;51.960;8.542;2023-04-06T07:13:10;28.23;;;26.17;;
2019;SDS011;1014;51.960;8.542;2023-04-06T07:15:37;27.83;;;25.70;;
2019;SDS011;1014;51.960;8.542;2023-04-06T07:18:04;27.23;;;25.33;;
2019;SDS011;1014;51.960;8.542;2023-04-06T07:20:31;27.13;;;24.90;;
2019;SDS011;1014;51.960;8.542;2023-04-06T07:22:58;29.02;;;27.02;;
2019;SDS011;1014;51.960;8.542;2023-04-06T07:25:27;26.40;;;24.60;;
2019;SDS011;1014;51.960;8.542;2023-04-06T07:27:54;26.85;;;24.92;;
2019;SDS011;1014;51.960;8.542;2023-04-06T07:30:21;27.52;;;25.30;;
2019;SDS011;1014;51.960;8.542;2023-04-06T07:32:50;26.83;;;25.02;;
2019;SDS011;1014;51.960;8.542;2023-04-06T07:35:17;25.95;;;24.15;;
2019;SDS011;1014;51.960;8.542;2023-04-06T07:37:44;26.63;;;24.80;;
2019;SDS011;1014;51.960;8.542;2023-04-06T07:40:11;27.55;;;25.65;;
2019;SDS011;1014;51.960;8.542;2023-04-06T07:42:40;26.65;;;24.42;;
2019;SDS011;1014;51.960;8.542;2023-04-06T07:45:07;27.08;;;25.17;;
2019;SDS011;1014;51.960;8.542;2023-04-06T07:47:34;26.05;;;24.13;;
2019;SDS011;1014;51.960;8.542;2023-04-06T07:50:01;26.95;;;24.23;;
2019;SDS011;1014;51.960;8.542;2023-04-06T07:52:28;26.88;;;24.95;;
2019;SDS011;1014;51.960;8.542;2023-04-06T07:54:56;26.33;;;24.50;;
2019;SDS011;1014;51.960;8.542;2023-04-06T07:57:24;26.45;;;24.65;;
2019;SDS011;1014;51.960;8.542;2023-04-06T07:59:52;27.07;;;25.17;;
2019;SDS011;1014;51.960;8.542;2023-04-06T08:02:19;27.85;;;25.85;;
2019;SDS011;1014;51.960;8.542;2023-04-06T08:04:46;26.58;;;24.88;;
2019;SDS011;1014;51.960;8.542;2023-04-06T08:07:13;27.10;;;25.15;;
2019;SDS011;1014;51.960;8.542;2023-04-06T08:09:40;27.60;;;25.60;;
2019;SDS011;1014;51.960;8.542;2023-04-06T08:12:07;27.60;;;25.60;;
2019;SDS011;1014;51.960;8.542;2023-04-06T08:14:34;26.83;;;24.90;;
2019;SDS011;1014;51.960;8.542;2023-04-06T08:17:03;27.70;;;25.77;;
2019;SDS011;1014;51.960;8.542;2023-04-06T08:19:30;26.95;;;25.08;;
2019;SDS011;1014;51.960;8.542;2023-04-06T08:21:57;26.60;;;24.90;;
2019;SDS011;1014;51.960;8.542;2023-04-06T08:24:24;27.80;;;25.77;;
2019;SDS011;1014;51.960;8.542;2023-04-06T08:26:51;26.83;;;25.03;;
2019;SDS011;1014;51.960;8.542;2023-04-06T08:29:18;27.80;;;25.70;;
2019;SDS011;1014;51.960;8.542;2023-04-06T08:31:45;29.70;;;27.33;;
2019;SDS011;1014;51.960;8.542;2023-04-06T08:34:13;27.05;;;25.10;;
2019;SDS011;1014;51.960;8.542;2023-04-06T08:36:40;28.55;;;26.35;;
2019;SDS011;1014;51.960;8.542;2023-04-06T08:39:07;27.63;;;25.52;;
2019;SDS011;1014;51.960;8.542;2023-04-06T08:41:34;29.40;;;27.15;;
2019;SDS011;1014;51.960;8.542;2023-04-06T08:44:02;27.63;;;25.80;;
2019;SDS011;1014;51.960;8.542;2023-04-06T08:46:30;29.90;;;27.60;;
2019;SDS011;1014;51.960;8.542;2023-04-06T08:48:58;28.00;;;26.10;;
2019;SDS011;1014;51.960;8.542;2023-04-06T08:51:27;28.05;;;26.15;;
2019;SDS011;1014;51.960;8.542;2023-04-06T08:53:55;29.70;;;27.30;;
2019;SDS011;1014;51.960;8.542;2023-04-06T08:56:22;27.80;;;25.90;;
2019;SDS011;1014;51.960;8.542;2023-04-06T08:58:50;28.00;;;26.10;;
2019;SDS011;1014;51.960;8.542;2023-04-06T09:01:20;29.37;;;27.07;;
2019;SDS011;1014;51.960;8.542;2023-04-06T09:03:48;29.23;;;27.03;;
2019;SDS011;1014;51.960;8.542;2023-04-06T09:06:15;25.73;;;24.03;;
2019;SDS011;1014;51.960;8.542;2023-04-06T09:08:44;26.73;;;24.80;;
2019;SDS011;1014;51.960;8.542;2023-04-06T09:11:11;24.80;;;23.00;;
2019;SDS011;1014;51.960;8.542;2023-04-06T09:13:45;27.60;;;25.60;;
2019;SDS011;1014;51.960;8.542;2023-04-06T09:16:12;26.07;;;24.37;;
2019;SDS011;1014;51.960;8.542;2023-04-06T09:18:39;28.17;;;25.97;;
2019;SDS011;1014;51.960;8.542;2023-04-06T09:21:06;27.93;;;25.83;;
2019;SDS011;1014;51.960;8.542;2023-04-06T09:23:34;27.97;;;25.87;;
2019;SDS011;1014;51.960;8.542;2023-04-06T09:26:09;25.73;;;24.00;;
2019;SDS011;1014;51.960;8.542;2023-04-06T09:28:43;29.30;;;27.20;;
2019;SDS011;1014;51.960;8.542;2023-04-06T09:31:11;28.03;;;26.10;;
2019;SDS011;1014;51.960;8.542;2023-04-06T09:33:38;29.00;;;26.90;;
2019;SDS011;1014;51.960;8.542;2023-04-06T09:36:05;28.53;;;26.50;;
2019;SDS011;1014;51.960;8.542;2023-04-06T09:38:34;26.97;;;25.07;;
2019;SDS011;1014;51.960;8.542;2023-04-06T09:41:01;28.23;;;25.90;;
2019;SDS011;1014;51.960;8.542;2023-04-06T09:43:30;29.27;;;27.07;;
2019;SDS011;1014;51.960;8.542;2023-04-06T09:45:57;29.87;;;27.63;;
2019;SDS011;1014;51.960;8.542;2023-04-06T09:48:24;28.77;;;26.57;;
2019;SDS011;1014;51.960;8.542;2023-04-06T09:50:52;30.17;;;27.63;;
2019;SDS011;1014;51.960;8.542;2023-04-06T09:53:21;29.00;;;27.00;;
2019;SDS011;1014;51.960;8.542;2023-04-06T09:55:50;30.40;;;28.00;;
2019;SDS011;1014;51.960;8.542;2023-04-06T09:58:18;29.37;;;27.03;;
2019;SDS011;1014;51.960;8.542;2023-04-06T10:00:54;30.80;;;28.40;;
2019;SDS011;1014;51.960;8.542;2023-04-06T10:03:26;30.90;;;28.60;;
2019;SDS011;1014;51.960;8.542;2023-04-06T10:05:56;29.23;;;27.03;;
2019;SDS011;1014;51.960;8.542;2023-04-06T10:08:24;26.13;;;24.20;;
2019;SDS011;1014;51.960;8.542;2023-04-06T10:10:52;29.10;;;26.93;;
2019;SDS011;1014;51.960;8.542;2023-04-06T10:13:19;29.50;;;27.40;;
2019;SDS011;1014;51.960;8.542;2023-04-06T10:15:46;30.07;;;27.73;;
2019;SDS011;1014;51.960;8.542;2023-04-06T10:18:15;29.60;;;27.40;;
2019;SDS011;1014;51.960;8.542;2023-04-06T10:20:43;30.17;;;28.07;;
2019;SDS011;1014;51.960;8.542;2023-04-06T10:23:13;30.30;;;28.10;;
2019;SDS011;1014;51.960;8.542;2023-04-06T10:25:51;29.67;;;27.40;;
2019;SDS011;1014;51.960;8.542;2023-04-06T10:28:19;30.10;;;27.90;;
2019;SDS011;1014;51.960;8.542;2023-04-06T10:30:46;30.83;;;28.53;;
2019;SDS011;1014;51.960;8.542;2023-04-06T10:33:13;30.40;;;28.30;;
2019;SDS011;1014;51.960;8.542;2023-04-06T10:35:42;31.53;;;29.13;;
2019;SDS011;1014;51.960;8.542;2023-04-06T10:38:09;33.10;;;30.87;;
2019;SDS011;1014;51.960;8.542;2023-04-06T10:40:37;32.33;;;29.93;;
2019;SDS011;1014;51.960;8.542;2023-04-06T10:43:07;31.97;;;29.43;;
2019;SDS011;1014;51.960;8.542;2023-04-06T10:45:34;29.70;;;27.50;;
2019;SDS011;1014;51.960;8.542;2023-04-06T10:48:12;29.70;;;27.50;;
2019;SDS011;1014;51.960;8.542;2023-04-06T10:50:39;28.10;;;25.73;;
2019;SDS011;1014;51.960;8.542;2023-04-06T10:53:07;29.60;;;27.50;;
2019;SDS011;1014;51.960;8.542;2023-04-06T10:55:34;29.57;;;27.47;;
2019;SDS011;1014;51.960;8.542;2023-04-06T10:58:05;31.30;;;28.80;;
2019;SDS011;1014;51.960;8.542;2023-04-06T11:00:33;29.00;;;26.90;;
2019;SDS011;1014;51.960;8.542;2023-04-06T11:03:00;31.07;;;28.57;;
2019;SDS011;1014;51.960;8.542;2023-04-06T11:05:27;30.50;;;28.10;;
2019;SDS011;1014;51.960;8.542;2023-04-06T11:07:55;30.30;;;27.90;;
2019;SDS011;1014;51.960;8.542;2023-04-06T11:10:24;31.47;;;29.10;;
2019;SDS011;1014;51.960;8.542;2023-04-06T11:12:54;32.07;;;29.40;;
2019;SDS011;1014;51.960;8.542;2023-04-06T11:15:21;31.60;;;29.10;;
2019;SDS011;1014;51.960;8.542;2023-04-06T11:17:48;32.53;;;30.10;;
2019;SDS011;1014;51.960;8.542;2023-04-06T11:20:15;30.33;;;28.07;;
2019;SDS011;1014;51.960;8.542;2023-04-06T11:22:47;32.87;;;30.27;;
2019;SDS011;1014;51.960;8.542;2023-04-06T11:25:15;34.43;;;31.60;;
2019;SDS011;1014;51.960;8.542;2023-04-06T11:27:43;33.40;;;30.50;;
2019;SDS011;1014;51.960;8.542;2023-04-06T11:30:11;31.47;;;29.13;;
2019;SDS011;1014;51.960;8.542;2023-04-06T11:32:39;31.47;;;28.87;;
2019;SDS011;1014;51.960;8.542;2023-04-06T11:35:07;30.97;;;28.50;;
2019;SDS011;1014;51.960;8.542;2023-04-06T11:37:34;30.73;;;28.43;;
2019;SDS011;1014;51.960;8.542;2023-04-06T11:40:02;30.90;;;28.40;;
2019;SDS011;1014;51.960;8.542;2023-04-06T11:42:30;28.30;;;26.10;;
2019;SDS011;1014;51.960;8.542;2023-04-06T11:44:59;30.80;;;28.30;;
2019;SDS011;1014;51.960;8.542;2023-04-06T11:47:27;32.37;;;29.33;;
2019;SDS011;1014;51.960;8.542;2023-04-06T11:49:54;31.57;;;28.60;;
2019;SDS011;1014;51.960;8.542;2023-04-06T11:52:24;32.47;;;29.80;;
2019;SDS011;1014;51.960;8.542;2023-04-06T11:54:51;31.63;;;28.93;;
2019;SDS011;1014;51.960;8.542;2023-04-06T11:57:19;31.60;;;28.83;;
2019;SDS011;1014;51.960;8.542;2023-04-06T11:59:48;30.00;;;27.50;;
2019;SDS011;1014;51.960;8.542;2023-04-06T12:02:16;30.73;;;28.17;;
2019;SDS011;1014;51.960;8.542;2023-04-06T12:04:43;31.53;;;29.03;;
2019;SDS011;1014;51.960;8.542;2023-04-06T12:07:10;25.90;;;23.90;;
2019;SDS011;1014;51.960;8.542;2023-04-06T12:09:37;29.47;;;27.03;;
2019;SDS011;1014;51.960;8.542;2023-04-06T12:12:05;30.23;;;27.93;;
2019;SDS011;1014;51.960;8.542;2023-04-06T12:14:32;32.43;;;29.70;;
2019;SDS011;1014;51.960;8.542;2023-04-06T12:16:59;29.90;;;27.50;;
2019;SDS011;1014;51.960;8.542;2023-04-06T12:19:27;27.70;;;25.40;;
2019;SDS011;1014;51.960;8.542;2023-04-06T12:21:54;27.47;;;25.57;;
2019;SDS011;1014;51.960;8.542;2023-04-06T12:24:22;30.07;;;27.80;;
2019;SDS011;1014;51.960;8.542;2023-04-06T12:26:49;28.80;;;26.67;;
2019;SDS011;1014;51.960;8.542;2023-04-06T12:29:16;29.10;;;26.80;;
2019;SDS011;1014;51.960;8.542;2023-04-06T12:31:44;29.63;;;27.43;;
2019;SDS011;1014;51.960;8.542;2023-04-06T12:34:11;29.10;;;26.90;;
2019;SDS011;1014;51.960;8.542;2023-04-06T12:36:39;28.73;;;26.43;;
2019;SDS011;1014;51.960;8.542;2023-04-06T12:39:07;29.13;;;26.80;;
2019;SDS011;1014;51.960;8.542;2023-04-06T12:41:36;31.50;;;29.10;;
2019;SDS011;1014;51.960;8.542;2023-04-06T12:44:05;29.83;;;27.67;;
2019;SDS011;1014;51.960;8.542;2023-04-06T12:46:32;29.30;;;27.00;;
2019;SDS011;1014;51.960;8.542;2023-04-06T12:49:00;28.77;;;26.60;;
2019;SDS011;1014;51.960;8.542;2023-04-06T12:51:28;31.33;;;28.93;;
2019;SDS011;1014;51.960;8.542;2023-04-06T12:53:57;27.50;;;25.43;;
2019;SDS011;1014;51.960;8.542;2023-04-06T12:56:24;29.97;;;27.57;;
2019;SDS011;1014;51.960;8.542;2023-04-06T12:58:51;28.80;;;26.47;;
2019;SDS011;1014;51.960;8.542;2023-04-06T13:01:18;30.87;;;28.53;;
2019;SDS011;1014;51.960;8.542;2023-04-06T13:03:46;28.30;;;26.23;;
2019;SDS011;1014;51.960;8.542;2023-04-06T13:06:13;31.13;;;28.73;;
2019;SDS011;1014;51.960;8.542;2023-04-06T13:08:40;32.10;;;29.60;;
2019;SDS011;1014;51.960;8.542;2023-04-06T13:11:08;32.53;;;29.87;;
2019;SDS011;1014;51.960;8.542;2023-04-06T13:13:35;32.03;;;29.53;;
2019;SDS011;1014;51.960;8.542;2023-04-06T13:16:03;31.17;;;28.67;;
2019;SDS011;1014;51.960;8.542;2023-04-06T13:18:31;31.30;;;29.00;;
2019;SDS011;1014;51.960;8.542;2023-04-06T13:20:59;30.83;;;28.40;;
2019;SDS011;1014;51.960;8.542;2023-04-06T13:23:26;30.27;;;27.73;;
2019;SDS011;1014;51.960;8.542;2023-04-06T13:25:56;30.30;;;27.70;;
2019;SDS011;1014;51.960;8.542;2023-04-06T13:28:25;29.87;;;27.43;;
2019;SDS011;1014;51.960;8.542;2023-04-06T13:30:53;30.73;;;28.30;;
2019;SDS011;1014;51.960;8.542;2023-04-06T13:33:20;31.23;;;28.90;;
2019;SDS011;1014;51.960;8.542;2023-04-06T13:35:47;31.13;;;28.73;;
2019;SDS011;1014;51.960;8.542;2023-04-06T13:38:14;30.10;;;27.80;;
2019;SDS011;1014;51.960;8.542;2023-04-06T13:40:41;31.43;;;28.83;;
2019;SDS011;1014;51.960;8.542;2023-04-06T13:43:09;30.97;;;28.57;;
2019;SDS011;1014;51.960;8.542;2023-04-06T13:45:37;31.30;;;29.10;;
2019;SDS011;1014;51.960;8.542;2023-04-06T13:48:05;31.50;;;28.90;;
2019;SDS011;1014;51.960;8.542;2023-04-06T13:50:32;31.23;;;28.67;;
2019;SDS011;1014;51.960;8.542;2023-04-06T13:53:00;30.20;;;27.80;;
2019;SDS011;1014;51.960;8.542;2023-04-06T13:55:27;30.53;;;28.27;;
2019;SDS011;1014;51.960;8.542;2023-04-06T13:57:55;31.87;;;29.03;;
2019;SDS011;1014;51.960;8.542;2023-04-06T14:00:22;31.27;;;28.80;;
2019;SDS011;1014;51.960;8.542;2023-04-06T14:02:51;32.80;;;30.20;;
2019;SDS011;1014;51.960;8.542;2023-04-06T14:05:20;31.67;;;29.07;;
2019;SDS011;1014;51.960;8.542;2023-04-06T14:07:49;32.77;;;30.27;;
2019;SDS011;1014;51.960;8.542;2023-04-06T14:10:16;31.90;;;29.40;;
2019;SDS011;1014;51.960;8.542;2023-04-06T14:12:46;35.17;;;32.10;;
2019;SDS011;1014;51.960;8.542;2023-04-06T14:15:13;31.07;;;28.47;;
2019;SDS011;1014;51.960;8.542;2023-04-06T14:17:40;31.57;;;29.30;;
2019;SDS011;1014;51.960;8.542;2023-04-06T14:20:09;32.53;;;29.83;;
2019;SDS011;1014;51.960;8.542;2023-04-06T14:22:39;32.30;;;29.60;;
2019;SDS011;1014;51.960;8.542;2023-04-06T14:25:07;34.13;;;31.47;;
2019;SDS011;1014;51.960;8.542;2023-04-06T14:27:34;33.60;;;30.90;;
2019;SDS011;1014;51.960;8.542;2023-04-06T14:30:02;33.50;;;30.80;;
2019;SDS011;1014;51.960;8.542;2023-04-06T14:32:29;33.63;;;30.90;;
2019;SDS011;1014;51.960;8.542;2023-04-06T14:34:57;35.77;;;32.60;;
2019;SDS011;1014;51.960;8.542;2023-04-06T14:37:25;34.40;;;31.53;;
2019;SDS011;1014;51.960;8.542;2023-04-06T14:39:52;35.30;;;31.77;;
2019;SDS011;1014;51.960;8.542;2023-04-06T14:42:20;32.73;;;30.03;;
2019;SDS011;1014;51.960;8.542;2023-04-06T14:44:47;33.80;;;30.90;;
2019;SDS011;1014;51.960;8.542;2023-04-06T14:47:14;34.10;;;31.27;;
2019;SDS011;1014;51.960;8.542;2023-04-06T14:49:45;33.50;;;30.90;;